Time;durP1;ratioP1;P1;durP2;ratioP2;P2;SDS_P1;SDS_P2;PMS_P1;PMS_P2;Temp;Humidity;BMP_temperature;BMP_pressure;BME280_temperature;BME280_humidity;BME280_pressure;Samples;Min_cycle;Max_cycle;Signal;HPM_P1;HPM_P2
2023/12/10 00:00:53;;;;;;;;;;;;;;;18.20;62.85;101213.56;7391117;19;1564;-41
2023/12/10 00:03:21;;;;;;;;;;;;;;;18.13;62.90;101218.53;7389888;19;1378;-41
2023/12/10 00:05:50;;;;;;;;;;;;;;;17.81;63.28;101229.88;7391195;19;1498;-41
2023/12/10 00:08:18;;;;;;;;;;;;;;;17.68;64.08;101223.72;7391189;19;1511;-41
2023/12/10 00:10:47;;;;;;;;;;;;;;;17.53;64.35;101224.88;7391399;19;1118;-41
2023/12/10 00:13:12;;;;;;;;;;;;;;;17.46;64.80;101208.44;7390323;19;1849;-41
2023/12/10 00:15:41;;;;;;;;;;;;;;;17.34;65.13;101220.06;7376304;19;1584;-41
2023/12/10 00:18:12;;;;;;;;;;;;;;;17.58;64.23;101212.03;7390025;19;1605;-41
2023/12/10 00:20:40;;;;;;;;;;;;;;;17.99;63.29;101224.13;7390127;19;1203;-41
2023/12/10 00:23:11;;;;;;;;;;;;;;;18.18;62.65;101227.06;7391974;19;1259;-41
2023/12/10 00:25:40;;;;;;;;;;;;;;;17.96;63.04;101225.19;7391164;19;1121;-41
2023/12/10 00:28:08;;;;;;;;;;;;;;;17.65;63.47;101218.63;7391199;19;1180;-41
2023/12/10 00:30:37;;;;;;;;;;;;;;;17.55;64.25;101223.81;7392030;19;1786;-41
2023/12/10 00:33:05;;;;;;;;;;;;;;;17.49;64.54;101229.63;7390503;19;1851;-41
2023/12/10 00:35:36;;;;;;;;;;;;;;;17.39;64.64;101213.41;7390360;19;1400;-41
2023/12/10 00:38:05;;;;;;;;;;;;;;;17.27;64.81;101220.50;7391077;19;1268;-41
2023/12/10 00:40:33;;;;;;;;;;;;;;;17.76;63.76;101221.31;7392264;19;1109;-41
2023/12/10 00:43:02;;;;;;;;;;;;;;;18.12;62.69;101222.19;7398813;19;1571;-41
2023/12/10 00:45:30;;;;;;;;;;;;;;;18.06;62.64;101207.47;7399476;19;1547;-41
2023/12/10 00:47:58;;;;;;;;;;;;;;;17.79;62.90;101198.84;7395353;19;1507;-41
2023/12/10 00:50:27;;;;;;;;;;;;;;;17.59;64.00;101192.34;7398560;19;1487;-42
2023/12/10 00:52:58;;;;;;;;;;;;;;;17.48;64.16;101202.00;7397813;19;1853;-41
2023/12/10 00:55:26;;;;;;;;;;;;;;;17.34;64.47;101183.47;7395809;19;1444;-41
2023/12/10 00:57:55;;;;;;;;;;;;;;;17.33;64.67;101196.94;7397653;19;1299;-41
2023/12/10 01:00:24;;;;;;;;;;;;;;;17.60;63.95;101148.56;7398551;19;1503;-41
2023/12/10 01:02:52;;;;;;;;;;;;;;;18.02;62.77;101148.94;7394577;19;1478;-42
2023/12/10 01:05:20;;;;;;;;;;;;;;;18.10;62.41;101162.56;7398342;19;1152;-41
2023/12/10 01:07:49;;;;;;;;;;;;;;;17.82;62.65;101151.28;7397287;19;1817;-41
2023/12/10 01:10:20;;;;;;;;;;;;;;;17.60;63.54;101146.75;7397371;19;1491;-41
2023/12/10 01:12:48;;;;;;;;;;;;;;;17.42;64.24;101142.81;7397121;19;1489;-41
2023/12/10 01:15:17;;;;;;;;;;;;;;;17.35;64.54;101142.41;7380561;19;1850;-41
2023/12/10 01:17:47;;;;;;;;;;;;;;;17.29;64.55;101137.53;7396804;19;1184;-41
2023/12/10 01:20:16;;;;;;;;;;;;;;;17.39;64.27;101141.22;7395710;19;1546;-41
2023/12/10 01:22:44;;;;;;;;;;;;;;;17.84;63.06;101143.19;7396581;19;1551;-41
2023/12/10 01:25:13;;;;;;;;;;;;;;;18.09;62.33;101126.94;7396206;19;1255;-42
2023/12/10 01:27:44;;;;;;;;;;;;;;;17.87;62.44;101151.84;7396343;19;1491;-41
2023/12/10 01:30:13;;;;;;;;;;;;;;;17.62;63.31;101127.91;7395577;19;1618;-41
2023/12/10 01:32:42;;;;;;;;;;;;;;;17.44;63.95;101125.66;7396033;19;1475;-47
2023/12/10 01:35:10;;;;;;;;;;;;;;;17.32;64.30;101123.94;7393480;19;1858;-43
2023/12/10 01:37:39;;;;;;;;;;;;;;;17.23;64.52;101121.94;7393358;19;1196;-41
2023/12/10 01:40:08;;;;;;;;;;;;;;;17.31;64.50;101130.25;7395669;19;978;-42
2023/12/10 01:42:37;;;;;;;;;;;;;;;17.69;63.12;101113.13;7395183;19;1550;-41
2023/12/10 01:45:09;;;;;;;;;;;;;;;18.17;62.00;101122.81;7395958;19;1444;-41
2023/12/10 01:47:37;;;;;;;;;;;;;;;17.95;62.47;101129.00;7394554;19;1172;-41
2023/12/10 01:50:06;;;;;;;;;;;;;;;17.63;63.11;101125.13;7394784;19;1505;-41
2023/12/10 01:52:36;;;;;;;;;;;;;;;17.53;63.63;101123.25;7393952;19;1595;-47
2023/12/10 01:55:05;;;;;;;;;;;;;;;17.43;64.16;101123.13;7392417;19;1852;-41
2023/12/10 01:57:35;;;;;;;;;;;;;;;17.33;64.25;101125.66;7395248;19;1140;-41
2023/12/10 02:00:05;;;;;;;;;;;;;;;17.34;64.09;101111.31;7395426;19;1121;-41
2023/12/10 02:02:36;;;;;;;;;;;;;;;17.76;62.95;101114.31;7395136;19;1109;-42
2023/12/10 02:05:06;;;;;;;;;;;;;;;18.12;62.09;101115.13;7394702;19;1580;-42
2023/12/10 02:07:35;;;;;;;;;;;;;;;17.84;62.32;101103.06;7395778;19;1202;-41
2023/12/10 02:10:05;;;;;;;;;;;;;;;17.64;63.33;101104.56;7394126;19;1459;-41
2023/12/10 02:12:34;;;;;;;;;;;;;;;17.49;63.85;101107.47;7393952;19;1195;-41
2023/12/10 02:15:14;;;;;;;;;;;;;;;17.33;64.21;101108.72;7393525;19;1857;-41
2023/12/10 02:17:45;;;;;;;;;;;;;;;17.26;64.27;101132.41;7395458;19;1566;-44
2023/12/10 02:20:14;;;;;;;;;;;;;;;17.47;63.86;101106.72;7395054;19;1559;-41
2023/12/10 02:22:45;;;;;;;;;;;;;;;17.90;62.74;101083.84;7395739;19;1167;-41
2023/12/10 02:25:16;;;;;;;;;;;;;;;18.12;61.81;101077.66;7394597;19;1557;-41
2023/12/10 02:27:47;;;;;;;;;;;;;;;17.88;62.33;101083.13;7393201;19;1190;-41
2023/12/10 02:30:15;;;;;;;;;;;;;;;17.64;63.30;101080.50;7392243;19;1412;-41
2023/12/10 02:32:44;;;;;;;;;;;;;;;17.39;63.90;101068.16;7393962;19;1481;-46
2023/12/10 02:35:13;;;;;;;;;;;;;;;17.87;62.53;101068.91;7392354;19;1852;-42
2023/12/10 02:37:41;;;;;;;;;;;;;;;18.66;60.54;101059.91;7394339;19;1463;-41
2023/12/10 02:40:10;;;;;;;;;;;;;;;19.41;58.72;101071.59;7393349;19;1207;-41
2023/12/10 02:42:39;;;;;;;;;;;;;;;19.64;57.95;101059.72;7394457;19;1547;-42
2023/12/10 02:45:11;;;;;;;;;;;;;;;19.90;57.28;101056.66;7392636;19;1452;-41
2023/12/10 02:47:39;;;;;;;;;;;;;;;19.69;57.94;101070.06;7392946;19;1365;-41
2023/12/10 02:50:08;;;;;;;;;;;;;;;19.55;58.34;101067.72;7392288;19;1311;-41
2023/12/10 02:52:37;;;;;;;;;;;;;;;19.58;58.29;101076.38;7392614;19;1136;-43
2023/12/10 02:55:06;;;;;;;;;;;;;;;19.57;58.30;101084.53;7391110;19;1861;-41
2023/12/10 02:57:35;;;;;;;;;;;;;;;19.54;58.40;101068.72;7392813;19;1581;-41
2023/12/10 03:00:03;;;;;;;;;;;;;;;19.59;58.13;101064.63;7392625;19;1216;-42
2023/12/10 03:02:34;;;;;;;;;;;;;;;19.57;58.10;101068.44;7392676;19;1829;-42
2023/12/10 03:05:02;;;;;;;;;;;;;;;19.53;58.43;101078.56;7390422;19;1489;-41
2023/12/10 03:07:31;;;;;;;;;;;;;;;19.65;58.19;101068.63;7392393;19;1871;-41
2023/12/10 03:09:59;;;;;;;;;;;;;;;19.69;57.83;101059.31;7392438;19;1210;-41
2023/12/10 03:12:28;;;;;;;;;;;;;;;19.69;58.14;101067.38;7392017;19;1215;-41
2023/12/10 03:14:56;;;;;;;;;;;;;;;19.72;57.92;101075.22;7391192;19;1854;-41
2023/12/10 03:17:24;;;;;;;;;;;;;;;19.80;57.66;101066.50;7376996;19;1294;-41
2023/12/10 03:19:55;;;;;;;;;;;;;;;19.78;57.96;101068.47;7391891;19;1914;-41
2023/12/10 03:22:24;;;;;;;;;;;;;;;19.84;57.66;101081.34;7392128;19;1562;-41
2023/12/10 03:24:52;;;;;;;;;;;;;;;19.76;57.75;101076.63;7392025;19;1203;-41
2023/12/10 03:27:20;;;;;;;;;;;;;;;19.83;57.60;101076.94;7391748;19;1193;-41
2023/12/10 03:29:49;;;;;;;;;;;;;;;19.94;57.57;101074.19;7391328;19;1499;-41
2023/12/10 03:32:17;;;;;;;;;;;;;;;19.90;57.46;101082.66;7391352;19;1213;-41
2023/12/10 03:34:46;;;;;;;;;;;;;;;19.90;57.57;101072.75;7392200;19;1839;-41
2023/12/10 03:37:17;;;;;;;;;;;;;;;19.88;57.61;101063.16;7391859;19;1497;-41
2023/12/10 03:39:45;;;;;;;;;;;;;;;19.88;57.69;101058.63;7390644;19;1471;-41
2023/12/10 03:42:13;;;;;;;;;;;;;;;19.98;57.65;101069.41;7391381;19;1192;-41
2023/12/10 03:44:43;;;;;;;;;;;;;;;19.93;57.41;101044.78;7391340;19;1508;-41
2023/12/10 03:47:11;;;;;;;;;;;;;;;19.77;57.79;101072.97;7391162;19;1481;-41
2023/12/10 03:49:39;;;;;;;;;;;;;;;19.03;59.33;101063.13;7390605;19;1191;-41
2023/12/10 03:52:08;;;;;;;;;;;;;;;18.64;60.77;101065.44;7391841;19;1059;-41
2023/12/10 03:54:39;;;;;;;;;;;;;;;18.95;60.01;101068.28;7390376;19;1864;-41
2023/12/10 03:57:07;;;;;;;;;;;;;;;19.53;58.47;101051.75;7391363;19;1481;-41
2023/12/10 03:59:36;;;;;;;;;;;;;;;19.74;58.13;101067.03;7390604;19;1298;-41
2023/12/10 04:02:04;;;;;;;;;;;;;;;19.20;59.47;101072.44;7390889;19;1196;-41
2023/12/10 04:04:33;;;;;;;;;;;;;;;18.73;60.63;101082.56;7390615;19;1594;-41
2023/12/10 04:07:01;;;;;;;;;;;;;;;18.39;61.24;101073.75;7390696;19;1200;-42
2023/12/10 04:09:30;;;;;;;;;;;;;;;18.55;60.90;101062.66;7389833;19;1496;-41
2023/12/10 04:12:01;;;;;;;;;;;;;;;18.79;60.54;101074.03;7389719;19;1177;-41
2023/12/10 04:14:29;;;;;;;;;;;;;;;19.11;59.50;101072.34;7389798;19;1867;-41
2023/12/10 04:16:58;;;;;;;;;;;;;;;19.32;59.08;101073.22;7383767;19;1152;-41
2023/12/10 04:19:26;;;;;;;;;;;;;;;19.33;58.87;101074.06;7398404;19;1504;-41
2023/12/10 04:21:54;;;;;;;;;;;;;;;19.20;59.23;101069.75;7397910;19;1224;-41
2023/12/10 04:24:23;;;;;;;;;;;;;;;19.12;59.45;101066.88;7398639;19;1473;-41
2023/12/10 04:26:51;;;;;;;;;;;;;;;19.22;59.33;101053.53;7398472;19;1229;-42
2023/12/10 04:29:22;;;;;;;;;;;;;;;19.12;59.56;101060.63;7398159;19;1196;-41
2023/12/10 04:31:50;;;;;;;;;;;;;;;19.15;59.28;101071.97;7398287;19;1615;-41
2023/12/10 04:34:19;;;;;;;;;;;;;;;19.11;59.54;101058.94;7397422;19;1851;-41
2023/12/10 04:36:47;;;;;;;;;;;;;;;19.11;59.47;101053.59;7397166;19;1248;-41
2023/12/10 04:39:16;;;;;;;;;;;;;;;19.12;59.60;101049.91;7396269;19;1475;-41
2023/12/10 04:41:44;;;;;;;;;;;;;;;19.13;59.61;101040.91;7396465;19;1082;-41
2023/12/10 04:44:13;;;;;;;;;;;;;;;19.15;59.57;101052.34;7396211;19;1274;-41
2023/12/10 04:46:44;;;;;;;;;;;;;;;19.11;59.62;101048.22;7397902;19;1025;-41
2023/12/10 04:49:12;;;;;;;;;;;;;;;19.20;59.42;101047.44;7397696;19;1895;-41
2023/12/10 04:51:41;;;;;;;;;;;;;;;19.12;59.49;101041.88;7395981;19;1401;-41
2023/12/10 04:54:09;;;;;;;;;;;;;;;19.14;59.31;101050.63;7397442;19;1628;-41
2023/12/10 04:56:38;;;;;;;;;;;;;;;19.19;59.21;101035.03;7393871;19;1840;-41
2023/12/10 04:59:06;;;;;;;;;;;;;;;19.28;58.97;101055.69;7396812;19;1658;-41
2023/12/10 05:01:34;;;;;;;;;;;;;;;19.21;59.10;101049.16;7395319;19;1187;-41
2023/12/10 05:04:05;;;;;;;;;;;;;;;19.16;59.30;101025.41;7393946;19;1355;-41
2023/12/10 05:06:34;;;;;;;;;;;;;;;19.15;59.46;101055.03;7394839;19;1298;-41
2023/12/10 05:09:03;;;;;;;;;;;;;;;19.11;59.42;101054.44;7394072;19;1481;-41
2023/12/10 05:11:31;;;;;;;;;;;;;;;19.16;59.42;101051.34;7394374;19;1389;-41
2023/12/10 05:14:00;;;;;;;;;;;;;;;19.10;59.26;101049.19;7392190;19;1453;-42
2023/12/10 05:16:28;;;;;;;;;;;;;;;19.16;59.25;101046.00;7378962;19;1850;-41
2023/12/10 05:18:56;;;;;;;;;;;;;;;19.13;59.24;101052.47;7395491;19;1476;-41
2023/12/10 05:21:27;;;;;;;;;;;;;;;19.14;59.25;101039.91;7394372;19;1208;-42
2023/12/10 05:23:56;;;;;;;;;;;;;;;19.09;59.34;101061.75;7396510;19;1829;-41
2023/12/10 05:26:24;;;;;;;;;;;;;;;19.10;59.51;101062.59;7394382;19;1435;-41
2023/12/10 05:28:52;;;;;;;;;;;;;;;19.08;59.19;101052.88;7395498;19;1634;-41
2023/12/10 05:31:21;;;;;;;;;;;;;;;19.04;59.41;101062.16;7392376;19;1598;-41
2023/12/10 05:33:49;;;;;;;;;;;;;;;19.16;59.81;101065.63;7394387;19;1400;-42
2023/12/10 05:36:18;;;;;;;;;;;;;;;19.18;60.06;101073.53;7393664;19;1827;-42
2023/12/10 05:38:49;;;;;;;;;;;;;;;19.16;59.92;101072.81;7395062;19;1564;-42
2023/12/10 05:41:17;;;;;;;;;;;;;;;19.08;59.87;101077.00;7394731;19;1581;-42
2023/12/10 05:43:45;;;;;;;;;;;;;;;19.13;59.82;101073.91;7395585;19;1105;-42
2023/12/10 05:46:14;;;;;;;;;;;;;;;19.07;59.56;101080.63;7395616;19;1439;-42
2023/12/10 05:48:42;;;;;;;;;;;;;;;19.14;59.58;101069.41;7394718;19;1479;-42
2023/12/10 05:51:11;;;;;;;;;;;;;;;19.11;59.35;101067.84;7394805;19;1621;-42
2023/12/10 05:53:39;;;;;;;;;;;;;;;19.09;59.22;101067.13;7394718;19;1551;-42
2023/12/10 05:56:11;;;;;;;;;;;;;;;19.14;59.24;101066.72;7393443;19;1857;-42
2023/12/10 05:58:39;;;;;;;;;;;;;;;19.04;59.18;101051.44;7394584;19;1931;-42
2023/12/10 06:01:08;;;;;;;;;;;;;;;19.07;59.13;101056.50;7394954;19;1546;-42
2023/12/10 06:03:36;;;;;;;;;;;;;;;19.03;58.95;101059.59;7393821;19;1593;-42
2023/12/10 06:06:04;;;;;;;;;;;;;;;19.04;58.98;101064.00;7389689;19;1305;-42
2023/12/10 06:08:33;;;;;;;;;;;;;;;18.88;57.65;101061.75;7391087;19;1212;-41
2023/12/10 06:11:01;;;;;;;;;;;;;;;18.90;57.70;101056.22;7393820;19;1443;-41
2023/12/10 06:13:32;;;;;;;;;;;;;;;18.91;57.91;101063.31;7393271;19;1365;-41
2023/12/10 06:16:02;;;;;;;;;;;;;;;18.93;58.06;101040.75;7390743;19;1842;-41
2023/12/10 06:18:30;;;;;;;;;;;;;;;18.97;58.08;101050.22;7375357;19;1757;-41
2023/12/10 06:20:59;;;;;;;;;;;;;;;18.92;58.26;101035.50;7394231;19;1584;-41
2023/12/10 06:23:27;;;;;;;;;;;;;;;18.47;58.12;100962.34;7390985;19;1594;-42
2023/12/10 06:25:56;;;;;;;;;;;;;;;18.97;57.81;101042.19;7392797;19;1554;-41
2023/12/10 06:28:24;;;;;;;;;;;;;;;19.03;57.82;101028.28;7394350;19;1531;-41
2023/12/10 06:30:55;;;;;;;;;;;;;;;19.08;57.89;101033.25;7392118;19;1386;-41
2023/12/10 06:33:23;;;;;;;;;;;;;;;19.10;57.75;101031.31;7393150;19;1187;-41
2023/12/10 06:35:52;;;;;;;;;;;;;;;19.07;57.83;101024.34;7390759;19;1863;-43
2023/12/10 06:38:20;;;;;;;;;;;;;;;19.10;57.98;101019.72;7391660;19;1160;-42
2023/12/10 06:40:49;;;;;;;;;;;;;;;19.06;58.11;101011.94;7394173;19;1281;-41
2023/12/10 06:43:17;;;;;;;;;;;;;;;19.03;58.37;101022.91;7391859;19;1203;-42
2023/12/10 06:45:46;;;;;;;;;;;;;;;19.02;57.74;101005.13;7392619;19;1173;-41
2023/12/10 06:48:17;;;;;;;;;;;;;;;19.03;57.52;101019.38;7391968;19;2361;-41
2023/12/10 06:50:45;;;;;;;;;;;;;;;19.21;57.39;101016.97;7392876;19;1942;-41
2023/12/10 06:53:14;;;;;;;;;;;;;;;19.17;57.51;101035.16;7391113;19;1560;-41
2023/12/10 06:55:42;;;;;;;;;;;;;;;19.22;57.30;101021.38;7392107;19;1869;-41
2023/12/10 06:58:10;;;;;;;;;;;;;;;19.35;57.07;101013.13;7392773;19;1487;-42
2023/12/10 07:00:39;;;;;;;;;;;;;;;19.27;57.26;101027.19;7391276;19;1270;-41
2023/12/10 07:03:07;;;;;;;;;;;;;;;19.20;57.50;101010.78;7390166;19;1346;-41
2023/12/10 07:05:38;;;;;;;;;;;;;;;19.29;57.48;101035.94;7392265;19;1452;-41
2023/12/10 07:08:04;;;;;;;;;;;;;;;19.33;57.43;101032.00;7392529;19;1130;-41
2023/12/10 07:10:33;;;;;;;;;;;;;;;19.28;57.57;101034.25;7390382;19;1192;-41
2023/12/10 07:13:01;;;;;;;;;;;;;;;19.32;57.65;101040.19;7388639;19;1818;-41
2023/12/10 07:15:29;;;;;;;;;;;;;;;19.25;57.70;101043.38;7390836;19;1844;-41
2023/12/10 07:17:58;;;;;;;;;;;;;;;19.25;57.75;101039.88;7376817;19;1246;-41
2023/12/10 07:20:26;;;;;;;;;;;;;;;19.24;57.78;101044.38;7391752;19;1575;-41
2023/12/10 07:22:58;;;;;;;;;;;;;;;19.24;57.76;101046.22;7392263;19;1380;-41
2023/12/10 07:25:26;;;;;;;;;;;;;;;19.27;57.98;101059.34;7389804;19;1280;-41
2023/12/10 07:27:54;;;;;;;;;;;;;;;19.33;57.75;101064.19;7391061;19;1324;-41
2023/12/10 07:30:23;;;;;;;;;;;;;;;19.26;58.00;101069.22;7393452;19;1572;-41
2023/12/10 07:32:53;;;;;;;;;;;;;;;19.30;57.85;101068.94;7392451;19;1267;-41
2023/12/10 07:35:22;;;;;;;;;;;;;;;19.28;58.19;101069.09;7391082;19;1845;-41
2023/12/10 07:37:50;;;;;;;;;;;;;;;19.30;58.16;101066.28;7392891;19;1517;-41
2023/12/10 07:40:22;;;;;;;;;;;;;;;19.34;57.94;101087.34;7391048;19;1324;-40
2023/12/10 07:42:51;;;;;;;;;;;;;;;19.40;58.12;101094.03;7392366;19;1551;-41
2023/12/10 07:45:19;;;;;;;;;;;;;;;19.29;58.19;101092.25;7392106;19;1284;-41
2023/12/10 07:47:47;;;;;;;;;;;;;;;19.25;58.29;101091.66;7392176;19;1179;-41
2023/12/10 07:50:16;;;;;;;;;;;;;;;19.23;58.73;101098.13;7390905;19;1534;-41
2023/12/10 07:52:44;;;;;;;;;;;;;;;19.32;58.58;101099.16;7390671;19;1894;-41
2023/12/10 07:55:13;;;;;;;;;;;;;;;19.32;58.42;101109.91;7391903;19;1223;-41
2023/12/10 07:57:44;;;;;;;;;;;;;;;19.39;57.63;101106.56;7389416;19;1829;-41
2023/12/10 08:00:13;;;;;;;;;;;;;;;19.34;57.51;101110.63;7387725;19;1156;-41
2023/12/10 08:02:42;;;;;;;;;;;;;;;19.35;57.67;101094.41;7386657;19;1315;-41
2023/12/10 08:05:11;;;;;;;;;;;;;;;19.55;57.40;101102.59;7390530;19;1259;-41
2023/12/10 08:07:40;;;;;;;;;;;;;;;19.55;57.48;101099.91;7390094;19;1308;-41
2023/12/10 08:10:09;;;;;;;;;;;;;;;19.13;58.55;101099.88;7388873;19;1255;-41
2023/12/10 08:12:37;;;;;;;;;;;;;;;18.69;59.80;101091.81;7389099;19;1308;-42
2023/12/10 08:15:08;;;;;;;;;;;;;;;18.45;60.32;101092.84;7389649;19;1200;-42
2023/12/10 08:17:37;;;;;;;;;;;;;;;18.30;60.90;101107.44;7370546;19;1845;-41
2023/12/10 08:20:06;;;;;;;;;;;;;;;18.21;60.97;101117.09;7387097;19;1460;-41
2023/12/10 08:22:34;;;;;;;;;;;;;;;18.16;61.67;101113.91;7388033;19;1573;-41
2023/12/10 08:25:03;;;;;;;;;;;;;;;18.86;60.12;101119.94;7389007;19;1926;-41
2023/12/10 08:27:31;;;;;;;;;;;;;;;19.33;58.75;101115.13;7388739;19;1578;-42
2023/12/10 08:29:59;;;;;;;;;;;;;;;19.55;58.38;101107.97;7387591;19;1491;-41
2023/12/10 08:32:30;;;;;;;;;;;;;;;18.97;59.32;101108.34;7387785;19;1506;-42
2023/12/10 08:34:59;;;;;;;;;;;;;;;18.47;60.24;101108.78;7386668;19;1366;-41
2023/12/10 08:37:27;;;;;;;;;;;;;;;18.54;60.18;101109.97;7378704;19;1870;-42
2023/12/10 08:39:56;;;;;;;;;;;;;;;19.04;58.84;101104.19;7387997;19;1587;-42
2023/12/10 08:42:25;;;;;;;;;;;;;;;19.54;57.78;101082.13;7384313;19;1617;-42
2023/12/10 08:44:54;;;;;;;;;;;;;;;19.41;57.79;101088.53;7386137;19;1133;-42
2023/12/10 08:47:22;;;;;;;;;;;;;;;18.91;58.97;101087.41;7386006;19;1390;-41
2023/12/10 08:49:53;;;;;;;;;;;;;;;18.56;59.89;101091.13;7385620;19;1173;-42
2023/12/10 08:52:23;;;;;;;;;;;;;;;18.74;59.80;101088.75;7387187;19;1498;-42
2023/12/10 08:54:51;;;;;;;;;;;;;;;19.02;59.10;101072.16;7385056;19;2375;-42
2023/12/10 08:57:20;;;;;;;;;;;;;;;19.34;58.30;101071.25;7384506;19;1861;-42
2023/12/10 08:59:48;;;;;;;;;;;;;;;19.46;57.82;101082.78;7386865;19;1483;-41
2023/12/10 09:02:16;;;;;;;;;;;;;;;19.48;57.84;101084.34;7389959;19;1305;-46
2023/12/10 09:04:46;;;;;;;;;;;;;;;19.31;58.34;101082.25;7394348;19;1573;-42
2023/12/10 09:07:17;;;;;;;;;;;;;;;19.25;58.44;101082.75;7395638;19;1128;-42
2023/12/10 09:09:45;;;;;;;;;;;;;;;19.23;58.46;101085.56;7393892;19;1741;-42
2023/12/10 09:12:14;;;;;;;;;;;;;;;19.22;58.51;101088.41;7394543;19;1920;-42
2023/12/10 09:14:42;;;;;;;;;;;;;;;19.18;58.37;101079.75;7394266;19;1309;-42
2023/12/10 09:17:10;;;;;;;;;;;;;;;19.20;58.43;101079.59;7388318;19;1858;-42
2023/12/10 09:19:39;;;;;;;;;;;;;;;19.31;58.39;101076.88;7386849;19;1560;-42
2023/12/10 09:22:07;;;;;;;;;;;;;;;19.33;58.25;101061.50;7394995;19;1449;-41
2023/12/10 09:24:39;;;;;;;;;;;;;;;19.39;57.98;101057.47;7393886;19;1556;-42
2023/12/10 09:27:08;;;;;;;;;;;;;;;19.42;58.11;101071.47;7394412;19;1209;-42
2023/12/10 09:29:38;;;;;;;;;;;;;;;19.32;58.40;101051.78;7393782;19;1559;-42
2023/12/10 09:32:07;;;;;;;;;;;;;;;19.28;58.06;101053.03;7395170;19;1160;-42
2023/12/10 09:34:35;;;;;;;;;;;;;;;19.40;57.96;101037.72;7395190;19;1435;-41
2023/12/10 09:37:04;;;;;;;;;;;;;;;19.28;58.13;101044.97;7394056;19;1842;-42
2023/12/10 09:39:32;;;;;;;;;;;;;;;19.13;57.75;101040.91;7394433;19;1543;-41
2023/12/10 09:42:03;;;;;;;;;;;;;;;19.27;57.84;101046.78;7389892;19;1572;-42
2023/12/10 09:44:32;;;;;;;;;;;;;;;19.30;57.74;101043.00;7392684;19;1419;-42
2023/12/10 09:47:01;;;;;;;;;;;;;;;19.37;57.70;101041.50;7390040;19;1415;-42
2023/12/10 09:49:31;;;;;;;;;;;;;;;19.35;57.85;101032.72;7391332;19;1386;-41
2023/12/10 09:51:59;;;;;;;;;;;;;;;19.39;57.66;101026.13;7391709;19;1413;-41
2023/12/10 09:54:28;;;;;;;;;;;;;;;19.38;57.64;101037.84;7393148;19;1912;-42
2023/12/10 09:56:56;;;;;;;;;;;;;;;19.39;57.63;101018.06;7388466;19;1900;-41
2023/12/10 09:59:27;;;;;;;;;;;;;;;19.43;57.90;101019.50;7390968;19;1542;-42
2023/12/10 10:01:56;;;;;;;;;;;;;;;19.44;57.62;101018.53;7389092;19;1333;-42
2023/12/10 10:04:24;;;;;;;;;;;;;;;19.36;57.70;101029.06;7389161;19;1555;-42
2023/12/10 10:06:52;;;;;;;;;;;;;;;19.41;57.75;101021.47;7392609;19;1309;-41
2023/12/10 10:09:21;;;;;;;;;;;;;;;19.42;56.75;101015.13;7388351;19;1153;-41
2023/12/10 10:11:50;;;;;;;;;;;;;;;19.48;56.89;101009.25;7390423;19;1433;-41
2023/12/10 10:14:19;;;;;;;;;;;;;;;19.58;56.42;101011.97;7390639;19;1551;-41
2023/12/10 10:16:51;;;;;;;;;;;;;;;19.56;56.57;101021.16;7392220;19;1880;-41
2023/12/10 10:19:20;;;;;;;;;;;;;;;19.64;56.46;101013.28;7377277;19;1200;-41
2023/12/10 10:21:48;;;;;;;;;;;;;;;19.54;56.84;101013.22;7390506;19;1600;-41
2023/12/10 10:24:17;;;;;;;;;;;;;;;19.55;56.85;101025.66;7388591;19;1196;-41
2023/12/10 10:26:45;;;;;;;;;;;;;;;19.57;56.75;101012.09;7390931;19;1196;-41
2023/12/10 10:29:13;;;;;;;;;;;;;;;19.58;56.55;101008.47;7390051;19;1499;-41
2023/12/10 10:31:42;;;;;;;;;;;;;;;19.59;56.62;101004.78;7390054;19;1167;-41
2023/12/10 10:34:13;;;;;;;;;;;;;;;19.58;56.66;101020.03;7389782;19;1258;-41
2023/12/10 10:36:42;;;;;;;;;;;;;;;19.54;56.81;101007.03;7393166;19;1869;-41
2023/12/10 10:39:10;;;;;;;;;;;;;;;19.59;56.52;101020.88;7393709;19;1542;-41
2023/12/10 10:41:39;;;;;;;;;;;;;;;19.59;56.45;101015.50;7392788;19;1545;-41
2023/12/10 10:44:07;;;;;;;;;;;;;;;19.59;56.25;101015.50;7394961;19;982;-41
2023/12/10 10:46:36;;;;;;;;;;;;;;;19.65;56.32;101014.97;7393861;19;1106;-41
2023/12/10 10:49:04;;;;;;;;;;;;;;;19.63;56.30;101007.03;7393412;19;1806;-41
2023/12/10 10:51:35;;;;;;;;;;;;;;;19.53;56.38;101008.84;7393425;19;1563;-41
2023/12/10 10:54:04;;;;;;;;;;;;;;;19.64;56.14;101010.59;7393061;19;1503;-41
2023/12/10 10:56:33;;;;;;;;;;;;;;;19.63;56.28;100990.09;7392782;19;1839;-41
2023/12/10 10:59:02;;;;;;;;;;;;;;;19.57;56.55;100990.66;7393139;19;1417;-41
2023/12/10 11:01:41;;;;;;;;;;;;;;;19.60;56.37;100985.03;7392864;19;1552;-41
2023/12/10 11:04:13;;;;;;;;;;;;;;;19.60;56.24;100990.41;7393170;19;1492;-41
2023/12/10 11:06:45;;;;;;;;;;;;;;;19.64;56.24;100978.41;7392197;19;1121;-41
2023/12/10 11:09:13;;;;;;;;;;;;;;;19.62;56.32;100991.09;7393143;19;1610;-41
2023/12/10 11:11:42;;;;;;;;;;;;;;;19.66;56.10;100987.16;7392516;19;1223;-41
2023/12/10 11:14:25;;;;;;;;;;;;;;;19.69;56.09;100965.41;7392574;19;1274;-41
2023/12/10 11:16:56;;;;;;;;;;;;;;;19.61;56.26;100959.88;7391943;19;2518;-41
2023/12/10 11:19:24;;;;;;;;;;;;;;;19.60;56.10;100972.44;7378129;19;1231;-41
2023/12/10 11:21:55;;;;;;;;;;;;;;;19.67;56.06;100959.34;7392669;19;1492;-41
2023/12/10 11:24:24;;;;;;;;;;;;;;;19.60;56.23;100963.56;7391322;19;1554;-41
2023/12/10 11:26:52;;;;;;;;;;;;;;;19.03;55.91;100882.69;7392538;19;1097;-41
2023/12/10 11:29:20;;;;;;;;;;;;;;;19.62;56.01;100948.19;7392463;19;1047;-41
2023/12/10 11:31:49;;;;;;;;;;;;;;;19.61;56.21;100967.94;7392501;19;1531;-41
2023/12/10 11:34:17;;;;;;;;;;;;;;;19.63;55.91;100969.50;7391897;19;1568;-41
2023/12/10 11:36:47;;;;;;;;;;;;;;;19.63;56.01;100957.91;7391537;19;1850;-41
2023/12/10 11:39:18;;;;;;;;;;;;;;;19.66;56.00;100973.75;7391444;19;1547;-41
2023/12/10 11:41:46;;;;;;;;;;;;;;;19.64;55.87;100970.34;7390386;19;1526;-41
2023/12/10 11:44:15;;;;;;;;;;;;;;;19.59;56.12;100968.06;7391944;19;1571;-42
2023/12/10 11:46:43;;;;;;;;;;;;;;;19.68;55.85;100975.31;7392133;19;1094;-41
2023/12/10 11:49:12;;;;;;;;;;;;;;;19.63;55.96;100971.31;7391754;19;1509;-41
2023/12/10 11:51:41;;;;;;;;;;;;;;;19.69;55.63;100957.38;7390324;19;1210;-41
2023/12/10 11:54:11;;;;;;;;;;;;;;;19.65;55.93;100967.50;7391617;19;1515;-41
2023/12/10 11:56:45;;;;;;;;;;;;;;;19.66;55.84;100965.72;7389752;19;1895;-41
2023/12/10 11:59:14;;;;;;;;;;;;;;;19.38;55.75;100911.81;7391948;19;1085;-41
2023/12/10 12:01:42;;;;;;;;;;;;;;;19.65;55.76;100982.78;7391663;19;1900;-41
2023/12/10 12:04:10;;;;;;;;;;;;;;;19.63;56.08;100960.59;7391358;19;1233;-41
2023/12/10 12:06:37;;;;;;;;;;;;;;;19.72;55.53;100956.31;7391016;19;1662;-41
2023/12/10 12:09:06;;;;;;;;;;;;;;;19.66;55.86;100968.38;7390466;19;1408;-41
2023/12/10 12:11:35;;;;;;;;;;;;;;;19.68;55.87;100974.47;7391172;19;1522;-41
2023/12/10 12:14:06;;;;;;;;;;;;;;;19.61;55.80;100967.94;7391877;19;1470;-41
2023/12/10 12:16:40;;;;;;;;;;;;;;;19.62;55.78;100958.91;7391551;19;1030;-42
2023/12/10 12:19:08;;;;;;;;;;;;;;;19.75;55.51;100972.97;7376318;19;1455;-41
2023/12/10 12:21:37;;;;;;;;;;;;;;;19.67;55.78;100956.66;7390832;19;1828;-41
2023/12/10 12:24:05;;;;;;;;;;;;;;;19.68;55.48;100961.06;7390929;19;1549;-41
2023/12/10 12:26:34;;;;;;;;;;;;;;;19.72;55.66;100961.69;7390649;19;1678;-41
2023/12/10 12:29:02;;;;;;;;;;;;;;;19.81;55.52;100967.03;7390729;19;1491;-41
2023/12/10 12:31:33;;;;;;;;;;;;;;;19.67;55.66;100954.81;7390364;19;1211;-41
2023/12/10 12:34:02;;;;;;;;;;;;;;;19.70;55.68;100945.66;7390620;19;1563;-41
2023/12/10 12:36:30;;;;;;;;;;;;;;;19.74;55.66;100955.19;7394559;19;1530;-42
2023/12/10 12:38:58;;;;;;;;;;;;;;;19.68;55.43;100959.22;7394409;19;1887;-41
2023/12/10 12:41:27;;;;;;;;;;;;;;;19.67;55.68;100946.75;7398367;19;1114;-41
2023/12/10 12:43:56;;;;;;;;;;;;;;;19.72;55.36;100940.22;7398172;19;1259;-41
2023/12/10 12:46:24;;;;;;;;;;;;;;;19.75;55.52;100954.19;7395615;19;1156;-41
2023/12/10 12:48:58;;;;;;;;;;;;;;;19.72;55.45;100945.56;7396996;19;1542;-41
2023/12/10 12:51:26;;;;;;;;;;;;;;;19.70;55.30;100948.34;7397248;19;1291;-41
2023/12/10 12:53:54;;;;;;;;;;;;;;;19.65;55.45;100942.53;7398102;19;1081;-41
2023/12/10 12:56:23;;;;;;;;;;;;;;;19.75;55.47;100947.97;7397028;19;1499;-41